createdAt,value
2023-05-01T00:00:09.622Z,18.13
2023-05-01T00:01:09.692Z,18.10
2023-05-01T00:02:09.728Z,18.10
2023-05-01T00:03:09.917Z,18.08
2023-05-01T00:04:10.134Z,18.10
2023-05-01T00:05:10.017Z,18.08
2023-05-01T00:06:10.025Z,18.10
2023-05-01T00:07:10.130Z,18.10
2023-05-01T00:08:10.121Z,18.08
2023-05-01T00:09:10.183Z,18.07
2023-05-01T00:10:10.342Z,18.04
2023-05-01T00:11:10.300Z,18.07
2023-05-01T00:12:10.375Z,18.03
2023-05-01T00:13:10.466Z,18.04
2023-05-01T00:14:10.540Z,18.04
2023-05-01T00:15:10.537Z,18.04
2023-05-01T00:16:10.695Z,18.03
2023-05-01T00:17:10.620Z,18.00
2023-05-01T00:18:10.725Z,18.01
2023-05-01T00:19:10.687Z,17.99
2023-05-01T00:20:10.808Z,17.97
2023-05-01T00:21:10.922Z,17.96
2023-05-01T00:22:10.931Z,17.99
2023-05-01T00:23:10.951Z,17.94
2023-05-01T00:24:10.926Z,17.94
2023-05-01T00:25:10.938Z,17.96
2023-05-01T00:26:11.022Z,17.94
2023-05-01T00:27:11.089Z,17.94
2023-05-01T00:28:11.033Z,17.94
2023-05-01T00:29:11.135Z,17.94
2023-05-01T00:30:11.154Z,17.94
2023-05-01T00:31:11.197Z,17.94
2023-05-01T00:32:11.359Z,17.93
2023-05-01T00:33:11.266Z,17.93
2023-05-01T00:34:11.230Z,17.93
2023-05-01T00:35:11.333Z,17.92
2023-05-01T00:36:11.415Z,17.92
2023-05-01T00:37:11.402Z,17.93
2023-05-01T00:38:11.415Z,17.93
2023-05-01T00:39:11.432Z,17.92
2023-05-01T00:40:11.826Z,17.90
2023-05-01T00:41:11.533Z,17.89
2023-05-01T00:42:11.626Z,17.89
2023-05-01T00:43:11.727Z,17.90
2023-05-01T00:44:11.787Z,17.89
2023-05-01T00:45:12.377Z,17.86
2023-05-01T00:46:11.986Z,17.89
2023-05-01T00:47:11.977Z,17.87
2023-05-01T00:48:11.976Z,17.87
2023-05-01T00:49:11.991Z,17.90
2023-05-01T00:50:12.063Z,17.87
2023-05-01T00:51:12.011Z,17.89
2023-05-01T00:52:12.082Z,17.86
2023-05-01T00:53:12.101Z,17.83
2023-05-01T00:54:12.087Z,17.83
2023-05-01T00:55:12.083Z,17.82
2023-05-01T00:56:12.096Z,17.82
2023-05-01T00:57:12.123Z,17.80
2023-05-01T00:58:12.194Z,17.82
2023-05-01T00:59:12.112Z,17.79
2023-05-01T01:00:12.351Z,17.79
2023-05-01T01:01:12.158Z,17.78
2023-05-01T01:02:12.222Z,17.78
2023-05-01T01:03:12.235Z,17.79
2023-05-01T01:04:12.299Z,17.80
2023-05-01T01:05:12.370Z,17.76
2023-05-01T01:06:12.268Z,17.79
2023-05-01T01:07:12.274Z,17.76
2023-05-01T01:08:12.370Z,17.76
2023-05-01T01:09:12.343Z,17.78
2023-05-01T01:10:12.376Z,17.73
2023-05-01T01:11:12.339Z,17.73
2023-05-01T01:12:12.392Z,17.76
2023-05-01T01:13:12.385Z,17.72
2023-05-01T01:14:12.455Z,17.73
2023-05-01T01:15:12.413Z,17.72
2023-05-01T01:16:12.478Z,17.70
2023-05-01T01:17:12.467Z,17.70
2023-05-01T01:18:12.475Z,17.69
2023-05-01T01:19:12.473Z,17.69
2023-05-01T01:20:13.334Z,17.69
2023-05-01T01:21:12.462Z,17.68
2023-05-01T01:22:12.448Z,17.72
2023-05-01T01:23:12.479Z,17.73
2023-05-01T01:24:12.476Z,17.70
2023-05-01T01:25:12.896Z,17.69
2023-05-01T01:26:12.481Z,17.69
2023-05-01T01:27:12.495Z,17.68
2023-05-01T01:28:12.530Z,17.66
2023-05-01T01:29:12.480Z,17.66
2023-05-01T01:30:12.562Z,17.66
2023-05-01T01:31:12.971Z,17.66
2023-05-01T01:32:12.572Z,17.66
2023-05-01T01:33:12.557Z,17.65
2023-05-01T01:34:12.546Z,17.66
2023-05-01T01:35:12.533Z,17.66
2023-05-01T01:36:12.568Z,17.65
2023-05-01T01:37:12.561Z,17.62
2023-05-01T01:38:12.597Z,17.62
2023-05-01T01:39:12.523Z,17.61
2023-05-01T01:40:12.557Z,17.62
2023-05-01T01:41:12.544Z,17.61
2023-05-01T01:42:12.562Z,17.59
2023-05-01T01:43:12.580Z,17.58
2023-05-01T01:44:12.563Z,17.58
2023-05-01T01:45:12.585Z,17.58
2023-05-01T01:46:13.436Z,17.53
2023-05-01T01:47:12.590Z,17.55
2023-05-01T01:48:12.646Z,17.52
2023-05-01T01:49:12.623Z,17.53
2023-05-01T01:50:12.620Z,17.53
2023-05-01T01:51:12.651Z,17.49
2023-05-01T01:52:12.686Z,17.46
2023-05-01T01:53:12.696Z,17.42
2023-05-01T01:54:12.718Z,17.42
2023-05-01T01:55:12.766Z,17.44
2023-05-01T01:56:12.757Z,17.44
2023-05-01T01:57:12.817Z,17.41
2023-05-01T01:58:12.825Z,17.41
2023-05-01T01:59:12.828Z,17.44
2023-05-01T02:00:12.844Z,17.41
2023-05-01T02:01:12.936Z,17.41
2023-05-01T02:02:13.103Z,17.41
2023-05-01T02:03:13.043Z,17.39
2023-05-01T02:04:12.989Z,17.39
2023-05-01T02:05:12.913Z,17.38
2023-05-01T02:06:13.057Z,17.39
2023-05-01T02:07:12.979Z,17.39
2023-05-01T02:08:13.064Z,17.35
2023-05-01T02:09:12.985Z,17.35
2023-05-01T02:10:13.024Z,17.39
2023-05-01T02:11:13.054Z,17.41
2023-05-01T02:12:13.109Z,17.41
2023-05-01T02:13:13.086Z,17.41
2023-05-01T02:14:13.126Z,17.42
2023-05-01T02:15:13.102Z,17.42
2023-05-01T02:16:13.172Z,17.41
2023-05-01T02:17:13.128Z,17.44
2023-05-01T02:18:13.152Z,17.42
2023-05-01T02:19:13.167Z,17.42
2023-05-01T02:20:13.230Z,17.44
2023-05-01T02:21:13.240Z,17.45
2023-05-01T02:22:13.238Z,17.37
2023-05-01T02:23:13.212Z,17.42
2023-05-01T02:24:13.257Z,17.41
2023-05-01T02:25:13.264Z,17.41
2023-05-01T02:26:13.324Z,17.44
2023-05-01T02:27:13.319Z,17.42
2023-05-01T02:28:13.352Z,17.42
2023-05-01T02:29:13.344Z,17.42
2023-05-01T02:30:13.441Z,17.44
2023-05-01T02:31:13.448Z,17.38
2023-05-01T02:32:13.397Z,17.35
2023-05-01T02:33:13.380Z,17.41
2023-05-01T02:34:13.420Z,17.42
2023-05-01T02:35:13.433Z,17.44
2023-05-01T02:36:13.481Z,17.44
2023-05-01T02:37:13.452Z,17.41
2023-05-01T02:38:13.480Z,17.44
2023-05-01T02:39:13.459Z,17.41
2023-05-01T02:40:13.524Z,17.39
2023-05-01T02:41:13.506Z,17.39
2023-05-01T02:42:13.512Z,17.39
2023-05-01T02:43:13.553Z,17.39
2023-05-01T02:44:13.630Z,17.39
2023-05-01T02:45:13.616Z,17.37
2023-05-01T02:46:13.679Z,17.38
2023-05-01T02:47:13.701Z,17.35
2023-05-01T02:48:13.716Z,17.39
2023-05-01T02:49:13.734Z,17.35
2023-05-01T02:50:13.733Z,17.35
2023-05-01T02:51:13.779Z,17.35
2023-05-01T02:52:13.816Z,17.34
2023-05-01T02:53:13.809Z,17.34
2023-05-01T02:54:13.821Z,17.35
2023-05-01T02:55:13.882Z,17.33
2023-05-01T02:56:13.885Z,17.33
2023-05-01T02:57:13.917Z,17.33
2023-05-01T02:58:13.926Z,17.34
2023-05-01T02:59:14.003Z,17.30
2023-05-01T03:00:14.253Z,17.30
2023-05-01T03:01:14.109Z,17.33
2023-05-01T03:02:14.069Z,17.30
2023-05-01T03:03:14.112Z,17.30
2023-05-01T03:04:14.132Z,17.31
2023-05-01T03:05:14.156Z,17.31
2023-05-01T03:06:14.470Z,17.28
2023-05-01T03:07:14.239Z,17.30
2023-05-01T03:08:14.281Z,17.20
2023-05-01T03:09:14.294Z,17.24
2023-05-01T03:10:14.332Z,17.25
2023-05-01T03:11:14.396Z,17.20
2023-05-01T03:12:14.402Z,17.25
2023-05-01T03:13:14.451Z,17.27
2023-05-01T03:14:14.473Z,17.28
2023-05-01T03:15:14.539Z,17.25
2023-05-01T03:16:14.635Z,17.24
2023-05-01T03:17:14.645Z,17.27
2023-05-01T03:18:14.626Z,17.27
2023-05-01T03:19:14.649Z,17.27
2023-05-01T03:20:14.704Z,17.27
2023-05-01T03:21:14.734Z,17.25
2023-05-01T03:22:14.766Z,17.28
2023-05-01T03:23:14.812Z,17.28
2023-05-01T03:24:14.819Z,17.27
2023-05-01T03:25:14.900Z,17.27
2023-05-01T03:26:14.916Z,17.28
2023-05-01T03:27:14.915Z,17.30
2023-05-01T03:28:14.970Z,17.30
2023-05-01T03:29:14.983Z,17.30
2023-05-01T03:30:14.999Z,17.30
2023-05-01T03:31:15.046Z,17.28
2023-05-01T03:32:15.203Z,17.30
2023-05-01T03:33:15.164Z,17.30
2023-05-01T03:34:15.118Z,17.30
2023-05-01T03:35:15.205Z,17.24
2023-05-01T03:36:15.412Z,17.16
2023-05-01T03:37:15.234Z,17.09
2023-05-01T03:38:15.223Z,16.99
2023-05-01T03:39:15.307Z,16.93
2023-05-01T03:40:15.315Z,17.00
2023-05-01T03:41:15.342Z,17.03
2023-05-01T03:42:15.887Z,17.05
2023-05-01T03:43:15.458Z,17.05
2023-05-01T03:44:15.465Z,17.02
2023-05-01T03:45:15.513Z,17.00
2023-05-01T03:46:15.644Z,17.02
2023-05-01T03:47:15.588Z,16.93
2023-05-01T03:48:15.641Z,16.90
2023-05-01T03:49:15.698Z,16.86
2023-05-01T03:50:15.734Z,16.84
2023-05-01T03:51:15.783Z,16.89
2023-05-01T03:52:15.844Z,16.87
2023-05-01T03:53:15.902Z,16.87
2023-05-01T03:54:15.906Z,16.90
2023-05-01T03:55:16.024Z,16.91
2023-05-01T03:56:16.068Z,16.94
2023-05-01T03:57:16.075Z,16.96
2023-05-01T03:58:16.118Z,16.97
2023-05-01T03:59:16.181Z,16.97
2023-05-01T04:00:16.263Z,16.99
2023-05-01T04:01:16.320Z,17.00
2023-05-01T04:02:16.371Z,16.99
2023-05-01T04:03:16.468Z,17.00
2023-05-01T04:04:16.543Z,16.99
2023-05-01T04:05:16.495Z,17.00
2023-05-01T04:06:16.932Z,16.99
2023-05-01T04:07:16.610Z,17.02
2023-05-01T04:08:16.671Z,17.02
2023-05-01T04:09:16.745Z,17.03
2023-05-01T04:10:16.841Z,17.03
2023-05-01T04:11:16.857Z,17.02
2023-05-01T04:12:16.907Z,17.06
2023-05-01T04:13:16.960Z,17.05
2023-05-01T04:14:17.005Z,17.03
2023-05-01T04:15:17.072Z,17.03
2023-05-01T04:16:17.233Z,17.02
2023-05-01T04:17:17.208Z,17.03
2023-05-01T04:18:17.296Z,17.02
2023-05-01T04:19:17.326Z,17.00
2023-05-01T04:20:17.376Z,17.02
2023-05-01T04:21:17.444Z,17.00
2023-05-01T04:22:17.520Z,17.02
2023-05-01T04:23:17.549Z,17.00
2023-05-01T04:24:17.605Z,17.02
2023-05-01T04:25:17.652Z,17.03
2023-05-01T04:26:17.908Z,17.03
2023-05-01T04:27:17.822Z,17.02
2023-05-01T04:28:17.824Z,17.02
2023-05-01T04:29:17.862Z,17.05
2023-05-01T04:30:17.943Z,17.05
2023-05-01T04:31:18.033Z,17.06
2023-05-01T04:32:18.061Z,17.07
2023-05-01T04:33:18.093Z,17.10
2023-05-01T04:34:18.134Z,17.11
2023-05-01T04:35:18.218Z,17.13
2023-05-01T04:36:18.456Z,17.09
2023-05-01T04:37:18.338Z,17.13
2023-05-01T04:38:18.365Z,17.11
2023-05-01T04:39:18.425Z,17.13
2023-05-01T04:40:18.515Z,17.11
2023-05-01T04:41:18.923Z,17.03
2023-05-01T04:42:18.587Z,17.06
2023-05-01T04:43:18.642Z,17.09
2023-05-01T04:44:18.673Z,17.10
2023-05-01T04:45:18.737Z,17.11
2023-05-01T04:46:18.989Z,17.10
2023-05-01T04:47:18.809Z,17.07
2023-05-01T04:48:18.908Z,17.10
2023-05-01T04:49:18.934Z,17.10
2023-05-01T04:50:19.003Z,17.10
2023-05-01T04:51:19.404Z,17.09
2023-05-01T04:52:19.072Z,17.13
2023-05-01T04:53:19.107Z,17.11
2023-05-01T04:54:19.181Z,17.13
2023-05-01T04:55:19.190Z,17.13
2023-05-01T04:56:19.454Z,17.16
2023-05-01T04:57:19.317Z,17.14
2023-05-01T04:58:19.353Z,17.10
2023-05-01T04:59:19.413Z,17.05
2023-05-01T05:00:19.448Z,17.05
2023-05-01T05:01:19.947Z,17.07
2023-05-01T05:02:19.578Z,17.07
2023-05-01T05:03:19.652Z,17.10
2023-05-01T05:04:19.627Z,17.07
2023-05-01T05:05:19.673Z,16.99
2023-05-01T05:06:19.971Z,16.97
2023-05-01T05:07:19.940Z,16.97
2023-05-01T05:08:19.831Z,17.00
2023-05-01T05:09:20.298Z,17.02
2023-05-01T05:10:19.980Z,17.02
2023-05-01T05:11:20.444Z,17.05
2023-05-01T05:12:20.073Z,17.06
2023-05-01T05:13:20.133Z,17.07
2023-05-01T05:14:20.173Z,17.09
2023-05-01T05:15:20.224Z,17.10
2023-05-01T05:16:20.498Z,17.11
2023-05-01T05:17:20.311Z,17.11
2023-05-01T05:18:20.463Z,17.13
2023-05-01T05:19:20.444Z,17.11
2023-05-01T05:20:20.454Z,17.10
2023-05-01T05:21:20.945Z,17.11
2023-05-01T05:22:20.571Z,17.13
2023-05-01T05:23:20.654Z,17.14
2023-05-01T05:24:20.694Z,17.16
2023-05-01T05:25:20.732Z,17.13
2023-05-01T05:26:20.785Z,17.14
2023-05-01T05:27:20.805Z,17.13
2023-05-01T05:28:20.852Z,17.14
2023-05-01T05:29:20.898Z,17.11
2023-05-01T05:30:21.909Z,17.09
2023-05-01T05:31:21.063Z,17.13
2023-05-01T05:32:21.519Z,17.13
2023-05-01T05:33:21.106Z,17.14
2023-05-01T05:34:21.139Z,17.16
2023-05-01T05:35:21.151Z,17.20
2023-05-01T05:36:21.208Z,17.23
2023-05-01T05:37:21.471Z,17.23
2023-05-01T05:38:21.246Z,17.27
2023-05-01T05:39:21.298Z,17.25
2023-05-01T05:40:21.294Z,17.28
2023-05-01T05:41:21.354Z,17.30
2023-05-01T05:42:21.348Z,17.33
2023-05-01T05:43:21.404Z,17.30
2023-05-01T05:44:21.442Z,17.28
2023-05-01T05:45:21.445Z,17.28
2023-05-01T05:46:21.580Z,17.30
2023-05-01T05:47:21.532Z,17.30
2023-05-01T05:48:21.603Z,17.34
2023-05-01T05:49:21.600Z,17.33
2023-05-01T05:50:21.622Z,17.33
2023-05-01T05:51:21.663Z,17.33
2023-05-01T05:52:21.989Z,17.33
2023-05-01T05:53:22.448Z,17.30
2023-05-01T05:54:21.913Z,17.31
2023-05-01T05:55:21.925Z,17.20
2023-05-01T05:56:21.957Z,17.24
2023-05-01T05:57:21.992Z,17.25
2023-05-01T05:58:21.980Z,17.28
2023-05-01T05:59:22.029Z,17.28
2023-05-01T06:00:22.054Z,17.31
2023-05-01T06:01:22.082Z,17.31
2023-05-01T06:02:22.519Z,17.33
2023-05-01T06:03:22.278Z,17.34
2023-05-01T06:04:22.116Z,17.37
2023-05-01T06:05:22.246Z,17.38
2023-05-01T06:06:22.205Z,17.34
2023-05-01T06:07:22.481Z,17.39
2023-05-01T06:08:22.186Z,17.41
2023-05-01T06:09:22.190Z,17.44
2023-05-01T06:10:22.219Z,17.49
2023-05-01T06:11:22.191Z,17.51
2023-05-01T06:12:22.193Z,17.52
2023-05-01T06:13:22.247Z,17.56
2023-05-01T06:14:22.230Z,17.59
2023-05-01T06:15:22.230Z,17.62
2023-05-01T06:16:22.316Z,17.62
2023-05-01T06:17:22.240Z,17.65
2023-05-01T06:18:22.283Z,17.66
2023-05-01T06:19:22.275Z,17.68
2023-05-01T06:20:22.249Z,17.69
2023-05-01T06:21:22.270Z,17.69
2023-05-01T06:22:22.272Z,17.72
2023-05-01T06:23:22.254Z,17.76
2023-05-01T06:24:22.281Z,17.75
2023-05-01T06:25:22.258Z,17.75
2023-05-01T06:26:22.271Z,17.76
2023-05-01T06:27:22.286Z,17.79
2023-05-01T06:28:22.395Z,17.78
2023-05-01T06:29:22.401Z,17.79
2023-05-01T06:30:22.376Z,17.83
2023-05-01T06:31:22.431Z,17.86
2023-05-01T06:32:22.406Z,17.85
2023-05-01T06:33:22.422Z,17.87
2023-05-01T06:34:22.365Z,17.90
2023-05-01T06:35:22.385Z,17.93
2023-05-01T06:36:22.358Z,17.93
2023-05-01T06:37:22.382Z,17.94
2023-05-01T06:38:23.132Z,17.93
2023-05-01T06:39:22.464Z,17.96
2023-05-01T06:40:22.491Z,17.97
2023-05-01T06:41:22.518Z,17.99
2023-05-01T06:42:22.521Z,18.00
2023-05-01T06:43:22.574Z,17.97
2023-05-01T06:44:22.586Z,17.94
2023-05-01T06:45:22.675Z,17.99
2023-05-01T06:46:22.752Z,17.96
2023-05-01T06:47:22.833Z,18.00
2023-05-01T06:48:22.806Z,18.00
2023-05-01T06:49:22.875Z,18.01
2023-05-01T06:50:22.995Z,18.04
2023-05-01T06:51:23.093Z,18.04
2023-05-01T06:52:23.082Z,18.04
2023-05-01T06:53:23.097Z,18.07
2023-05-01T06:54:23.123Z,18.04
2023-05-01T06:55:23.110Z,18.04
2023-05-01T06:56:23.097Z,18.00
2023-05-01T06:57:23.140Z,17.97
2023-05-01T06:58:24.373Z,17.94
2023-05-01T06:59:23.236Z,17.96
2023-05-01T07:00:23.280Z,17.94
2023-05-01T07:01:23.373Z,17.99
2023-05-01T07:02:23.286Z,17.97
2023-05-01T07:03:23.374Z,17.90
2023-05-01T07:04:23.320Z,17.94
2023-05-01T07:05:23.399Z,17.96
2023-05-01T07:06:23.500Z,17.94
2023-05-01T07:07:23.988Z,17.99
2023-05-01T07:08:23.578Z,18.00
2023-05-01T07:09:23.639Z,17.99
2023-05-01T07:10:23.701Z,17.97
2023-05-01T07:11:23.744Z,17.97
2023-05-01T07:12:23.970Z,17.94
2023-05-01T07:13:23.889Z,17.97
2023-05-01T07:14:23.947Z,18.01
2023-05-01T07:15:24.000Z,18.06
2023-05-01T07:16:24.084Z,18.07
2023-05-01T07:17:24.127Z,18.06
2023-05-01T07:18:24.153Z,18.04
2023-05-01T07:19:24.157Z,18.04
2023-05-01T07:20:24.289Z,18.04
2023-05-01T07:21:24.297Z,18.01
2023-05-01T07:22:24.339Z,18.01
2023-05-01T07:23:24.379Z,18.07
2023-05-01T07:24:24.457Z,18.10
2023-05-01T07:25:24.483Z,18.11
2023-05-01T07:26:24.573Z,18.16
2023-05-01T07:27:24.640Z,18.11
2023-05-01T07:28:24.652Z,18.08
2023-05-01T07:29:24.722Z,18.14
2023-05-01T07:30:24.804Z,18.13
2023-05-01T07:31:24.851Z,18.13
2023-05-01T07:32:24.973Z,18.11
2023-05-01T07:33:25.012Z,17.96
2023-05-01T07:34:24.947Z,18.04
2023-05-01T07:35:25.034Z,18.10
2023-05-01T07:36:25.042Z,18.03
2023-05-01T07:37:25.115Z,18.08
2023-05-01T07:38:25.139Z,18.13
2023-05-01T07:39:25.191Z,18.11
2023-05-01T07:40:25.290Z,18.13
2023-05-01T07:41:25.262Z,18.10
2023-05-01T07:42:25.318Z,18.14
2023-05-01T07:43:25.310Z,18.18
2023-05-01T07:44:25.367Z,18.14
2023-05-01T07:45:25.419Z,18.07
2023-05-01T07:46:25.472Z,18.16
2023-05-01T07:47:25.478Z,18.17
2023-05-01T07:48:25.492Z,18.21
2023-05-01T07:49:25.468Z,18.07
2023-05-01T07:50:25.494Z,17.99
2023-05-01T07:51:25.488Z,17.96
2023-05-01T07:52:26.031Z,18.03
2023-05-01T07:53:25.531Z,17.90
2023-05-01T07:54:25.533Z,18.07
2023-05-01T07:55:25.544Z,18.10
2023-05-01T07:56:25.555Z,18.17
2023-05-01T07:57:25.989Z,18.23
2023-05-01T07:58:25.519Z,18.28
2023-05-01T07:59:25.560Z,18.34
2023-05-01T08:00:25.594Z,18.40
2023-05-01T08:01:25.573Z,18.48
2023-05-01T08:02:25.620Z,18.54
2023-05-01T08:03:25.670Z,18.55
2023-05-01T08:04:25.724Z,18.61
2023-05-01T08:05:25.569Z,18.59
2023-05-01T08:06:25.634Z,18.62
2023-05-01T08:07:25.580Z,18.65
2023-05-01T08:08:25.630Z,18.66
2023-05-01T08:09:25.622Z,18.68
2023-05-01T08:10:25.633Z,18.70
2023-05-01T08:11:25.638Z,18.69
2023-05-01T08:12:25.617Z,18.78
2023-05-01T08:13:25.617Z,18.73
2023-05-01T08:14:25.678Z,18.78
2023-05-01T08:15:25.669Z,18.83
2023-05-01T08:16:25.789Z,18.86
2023-05-01T08:17:25.979Z,18.89
2023-05-01T08:18:25.883Z,18.93
2023-05-01T08:19:25.904Z,18.92
2023-05-01T08:20:25.948Z,18.96
2023-05-01T08:21:25.982Z,18.99
2023-05-01T08:22:26.047Z,18.92
2023-05-01T08:23:26.124Z,18.92
2023-05-01T08:24:26.148Z,18.96
2023-05-01T08:25:26.243Z,18.80
2023-05-01T08:26:26.256Z,18.83
2023-05-01T08:27:26.327Z,18.86
2023-05-01T08:28:26.354Z,18.93
2023-05-01T08:29:26.415Z,18.97
2023-05-01T08:30:26.471Z,18.99
2023-05-01T08:31:26.543Z,19.06
2023-05-01T08:32:26.599Z,19.03
2023-05-01T08:33:26.604Z,18.97
2023-05-01T08:34:26.676Z,19.02
2023-05-01T08:35:26.738Z,18.89
2023-05-01T08:36:26.742Z,19.03
2023-05-01T08:37:26.820Z,19.05
2023-05-01T08:38:26.822Z,18.96
2023-05-01T08:39:26.877Z,19.02
2023-05-01T08:40:26.901Z,19.06
2023-05-01T08:41:26.916Z,19.00
2023-05-01T08:42:26.986Z,19.10
2023-05-01T08:43:26.987Z,19.11
2023-05-01T08:44:27.041Z,19.09
2023-05-01T08:45:27.058Z,19.06
2023-05-01T08:46:27.129Z,19.11
2023-05-01T08:47:27.123Z,19.17
2023-05-01T08:48:27.089Z,19.23
2023-05-01T08:49:27.133Z,19.30
2023-05-01T08:50:27.153Z,19.33
2023-05-01T08:51:27.166Z,19.38
2023-05-01T08:52:27.148Z,19.41
2023-05-01T08:53:27.118Z,19.42
2023-05-01T08:54:27.160Z,19.52
2023-05-01T08:55:27.182Z,19.54
2023-05-01T08:56:27.147Z,19.55
2023-05-01T08:57:27.488Z,19.59
2023-05-01T08:58:27.159Z,19.64
2023-05-01T08:59:27.159Z,19.65
2023-05-01T09:00:27.222Z,19.70
2023-05-01T09:01:27.262Z,19.73
2023-05-01T09:02:28.019Z,19.78
2023-05-01T09:03:27.300Z,19.85
2023-05-01T09:04:27.311Z,19.86
2023-05-01T09:05:27.250Z,19.78
2023-05-01T09:06:27.265Z,19.82
2023-05-01T09:07:27.276Z,19.82
2023-05-01T09:08:27.260Z,19.85
2023-05-01T09:09:27.261Z,19.86
2023-05-01T09:10:27.323Z,19.59
2023-05-01T09:11:27.374Z,19.72
2023-05-01T09:12:27.532Z,19.75
2023-05-01T09:13:27.533Z,19.82
2023-05-01T09:14:27.568Z,19.82
2023-05-01T09:15:27.647Z,19.62
2023-05-01T09:16:27.740Z,19.76
2023-05-01T09:17:27.782Z,19.80
2023-05-01T09:18:27.774Z,19.85
2023-05-01T09:19:27.845Z,19.93
2023-05-01T09:20:27.855Z,19.99
2023-05-01T09:21:27.916Z,20.05
2023-05-01T09:22:28.026Z,20.06
2023-05-01T09:23:28.072Z,20.12
2023-05-01T09:24:28.014Z,20.13
2023-05-01T09:25:28.100Z,20.17
2023-05-01T09:26:28.116Z,20.24
2023-05-01T09:27:28.155Z,20.07
2023-05-01T09:28:28.135Z,20.10
2023-05-01T09:29:28.149Z,20.16
2023-05-01T09:30:28.165Z,19.89
2023-05-01T09:31:28.217Z,19.96
2023-05-01T09:32:28.415Z,19.92
2023-05-01T09:33:28.192Z,19.93
2023-05-01T09:34:28.195Z,19.73
2023-05-01T09:35:28.214Z,19.54
2023-05-01T09:36:28.255Z,19.62
2023-05-01T09:37:28.221Z,19.68
2023-05-01T09:38:28.290Z,19.68
2023-05-01T09:39:28.553Z,19.83
2023-05-01T09:40:28.343Z,19.97
2023-05-01T09:41:28.305Z,19.90
2023-05-01T09:42:28.512Z,19.96
2023-05-01T09:43:28.416Z,20.09
2023-05-01T09:44:28.361Z,20.16
2023-05-01T09:45:28.398Z,20.21
2023-05-01T09:46:28.392Z,20.16
2023-05-01T09:47:28.400Z,20.30
2023-05-01T09:48:28.387Z,20.38
2023-05-01T09:49:28.402Z,20.40
2023-05-01T09:50:28.419Z,20.44
2023-05-01T09:51:28.479Z,20.44
2023-05-01T09:52:28.512Z,20.58
2023-05-01T09:53:28.551Z,20.52
2023-05-01T09:54:28.589Z,20.67
2023-05-01T09:55:28.640Z,20.67
2023-05-01T09:56:28.699Z,20.55
2023-05-01T09:57:28.737Z,20.52
2023-05-01T09:58:28.763Z,20.55
2023-05-01T09:59:28.797Z,20.38
2023-05-01T10:00:28.863Z,20.40
2023-05-01T10:01:28.935Z,20.31
2023-05-01T10:02:29.062Z,20.37
2023-05-01T10:03:29.138Z,20.38
2023-05-01T10:04:29.057Z,20.51
2023-05-01T10:05:29.079Z,20.59
2023-05-01T10:06:29.213Z,20.68
2023-05-01T10:07:29.570Z,20.67
2023-05-01T10:08:29.212Z,20.69
2023-05-01T10:09:29.243Z,20.48
2023-05-01T10:10:29.281Z,20.47
2023-05-01T10:11:29.336Z,20.61
2023-05-01T10:12:29.368Z,20.58
2023-05-01T10:13:29.399Z,20.50
2023-05-01T10:14:29.433Z,20.52
2023-05-01T10:15:29.482Z,20.52
2023-05-01T10:16:29.514Z,20.58
2023-05-01T10:17:29.561Z,20.48
2023-05-01T10:18:29.485Z,20.50
2023-05-01T10:19:29.501Z,20.48
2023-05-01T10:20:29.512Z,20.44
2023-05-01T10:21:29.511Z,20.33
2023-05-01T10:22:29.574Z,20.28
2023-05-01T10:23:29.536Z,20.33
2023-05-01T10:24:29.556Z,20.34
2023-05-01T10:25:29.584Z,20.37
2023-05-01T10:26:29.589Z,20.17
2023-05-01T10:27:30.060Z,20.24
2023-05-01T10:28:29.618Z,20.27
2023-05-01T10:29:29.652Z,20.41
2023-05-01T10:30:29.654Z,20.38
2023-05-01T10:31:29.733Z,20.38
2023-05-01T10:32:29.739Z,20.38
2023-05-01T10:33:29.718Z,20.31
2023-05-01T10:34:29.703Z,20.41
2023-05-01T10:35:29.725Z,20.41
2023-05-01T10:36:29.771Z,20.34
2023-05-01T10:37:29.881Z,20.41
2023-05-01T10:38:29.816Z,20.48
2023-05-01T10:39:29.835Z,20.55
2023-05-01T10:40:29.987Z,20.51
2023-05-01T10:41:29.867Z,20.50
2023-05-01T10:42:29.903Z,20.35
2023-05-01T10:43:29.888Z,20.48
2023-05-01T10:44:29.930Z,20.47
2023-05-01T10:45:29.875Z,20.51
2023-05-01T10:46:29.992Z,20.59
2023-05-01T10:47:29.982Z,20.42
2023-05-01T10:48:29.922Z,20.51
2023-05-01T10:49:29.908Z,20.52
2023-05-01T10:50:29.945Z,20.58
2023-05-01T10:51:29.910Z,20.64
2023-05-01T10:52:29.916Z,20.69
2023-05-01T10:53:29.940Z,20.71
2023-05-01T10:54:29.935Z,20.69
2023-05-01T10:55:29.978Z,20.59
2023-05-01T10:56:29.980Z,20.69
2023-05-01T10:57:30.076Z,20.83
2023-05-01T10:58:30.059Z,20.89
2023-05-01T10:59:30.113Z,20.96
2023-05-01T11:00:30.120Z,20.89
2023-05-01T11:01:30.335Z,20.67
2023-05-01T11:02:30.250Z,20.78
2023-05-01T11:03:30.286Z,20.74
2023-05-01T11:04:30.319Z,20.67
2023-05-01T11:05:38.180Z,20.45
2023-05-01T11:06:31.460Z,20.62
2023-05-01T11:07:30.367Z,20.62
2023-05-01T11:08:30.337Z,20.74
2023-05-01T11:09:30.339Z,20.69
2023-05-01T11:10:30.322Z,20.85
2023-05-01T11:11:30.325Z,20.89
2023-05-01T11:12:30.308Z,21.00
2023-05-01T11:13:30.317Z,21.17
2023-05-01T11:14:30.375Z,21.20
2023-05-01T11:15:30.383Z,21.09
2023-05-01T11:16:30.475Z,20.96
2023-05-01T11:17:30.505Z,20.90
2023-05-01T11:18:30.550Z,20.83
2023-05-01T11:19:30.551Z,20.88
2023-05-01T11:20:30.573Z,20.74
2023-05-01T11:21:30.592Z,20.74
2023-05-01T11:22:30.638Z,20.86
2023-05-01T11:23:30.694Z,20.96
2023-05-01T11:24:30.717Z,21.03
2023-05-01T11:25:30.760Z,20.97
2023-05-01T11:26:32.490Z,20.80
2023-05-01T11:27:30.866Z,20.90
2023-05-01T11:28:30.876Z,20.69
2023-05-01T11:29:30.934Z,20.83
2023-05-01T11:30:30.952Z,20.86
2023-05-01T11:31:30.964Z,21.02
2023-05-01T11:32:31.066Z,20.90
2023-05-01T11:33:31.067Z,20.96
2023-05-01T11:34:31.097Z,20.96
2023-05-01T11:35:31.158Z,20.99
2023-05-01T11:36:31.177Z,20.93
2023-05-01T11:37:31.194Z,20.99
2023-05-01T11:38:31.241Z,20.96
2023-05-01T11:39:31.272Z,20.90
2023-05-01T11:40:31.311Z,20.86
2023-05-01T11:41:31.344Z,20.96
2023-05-01T11:42:31.412Z,20.97
2023-05-01T11:43:31.385Z,21.03
2023-05-01T11:44:31.381Z,20.96
2023-05-01T11:45:31.488Z,20.85
2023-05-01T11:46:31.660Z,20.67
2023-05-01T11:47:31.574Z,20.58
2023-05-01T11:48:31.575Z,20.64
2023-05-01T11:49:31.760Z,20.67
2023-05-01T11:50:31.680Z,20.80
2023-05-01T11:51:31.707Z,20.97
2023-05-01T11:52:31.706Z,21.06
2023-05-01T11:53:32.106Z,20.99
2023-05-01T11:54:31.706Z,21.10
2023-05-01T11:55:31.690Z,21.10
2023-05-01T11:56:31.709Z,21.19
2023-05-01T11:57:31.677Z,21.24
2023-05-01T11:58:31.701Z,21.34
2023-05-01T11:59:31.695Z,21.30
2023-05-01T12:00:31.780Z,21.37
2023-05-01T12:01:31.783Z,21.47
2023-05-01T12:02:32.044Z,21.24
2023-05-01T12:03:32.079Z,21.34
2023-05-01T12:04:32.651Z,21.24
2023-05-01T12:05:32.070Z,21.29
2023-05-01T12:06:32.135Z,21.42
2023-05-01T12:07:32.165Z,21.44
2023-05-01T12:08:32.236Z,21.40
2023-05-01T12:09:32.288Z,21.40
2023-05-01T12:10:34.747Z,21.33
2023-05-01T12:11:32.401Z,21.38
2023-05-01T12:12:32.344Z,21.30
2023-05-01T12:13:32.345Z,21.22
2023-05-01T12:14:32.324Z,21.38
2023-05-01T12:15:32.351Z,21.42
2023-05-01T12:16:32.377Z,21.41
2023-05-01T12:17:32.408Z,21.45
2023-05-01T12:18:32.351Z,21.38
2023-05-01T12:19:32.360Z,21.44
2023-05-01T12:20:32.291Z,21.40
2023-05-01T12:21:32.286Z,21.42
2023-05-01T12:22:32.267Z,21.50
2023-05-01T12:23:32.278Z,21.58
2023-05-01T12:24:32.287Z,21.59
2023-05-01T12:25:32.289Z,21.62
2023-05-01T12:26:32.245Z,21.57
2023-05-01T12:27:32.307Z,21.58
2023-05-01T12:28:32.628Z,21.50
2023-05-01T12:29:32.263Z,21.69
2023-05-01T12:30:32.221Z,21.57
2023-05-01T12:31:32.288Z,21.42
2023-05-01T12:32:32.208Z,21.48
2023-05-01T12:33:32.248Z,21.33
2023-05-01T12:34:32.219Z,21.31
2023-05-01T12:35:32.168Z,21.41
2023-05-01T12:36:32.181Z,21.59
2023-05-01T12:37:32.196Z,21.57
2023-05-01T12:38:32.156Z,21.72
2023-05-01T12:39:32.181Z,21.85
2023-05-01T12:40:32.160Z,21.92
2023-05-01T12:41:32.146Z,22.00
2023-05-01T12:42:32.142Z,21.82
2023-05-01T12:43:32.619Z,21.79
2023-05-01T12:44:32.105Z,21.82
2023-05-01T12:45:32.118Z,21.74
2023-05-01T12:46:32.191Z,21.79
2023-05-01T12:47:32.107Z,21.62
2023-05-01T12:48:32.106Z,21.61
2023-05-01T12:49:32.102Z,21.59
2023-05-01T12:50:32.072Z,21.52
2023-05-01T12:51:32.152Z,21.44
2023-05-01T12:52:32.059Z,21.41